createdAt,value
2023-07-25T00:01:51.926Z,17.01
2023-07-25T00:04:36.848Z,17.01
2023-07-25T00:07:21.784Z,17.10
2023-07-25T00:10:06.711Z,17.11
2023-07-25T00:12:51.806Z,17.07
2023-07-25T00:15:36.741Z,16.90
2023-07-25T00:18:21.890Z,16.97
2023-07-25T00:21:06.653Z,16.88
2023-07-25T00:23:51.700Z,16.91
2023-07-25T00:26:36.570Z,17.00
2023-07-25T00:29:21.506Z,17.01
2023-07-25T00:32:06.525Z,17.04
2023-07-25T00:34:51.911Z,17.02
2023-07-25T00:37:37.045Z,17.06
2023-07-25T00:40:21.950Z,17.00
2023-07-25T00:43:07.359Z,17.06
2023-07-25T00:45:52.235Z,16.97
2023-07-25T00:48:37.167Z,16.94
2023-07-25T00:51:21.995Z,16.92
2023-07-25T00:54:06.962Z,16.98
2023-07-25T00:56:52.104Z,16.92
2023-07-25T00:59:37.022Z,16.88
2023-07-25T01:02:22.095Z,16.83
2023-07-25T01:05:06.964Z,16.86
2023-07-25T01:07:52.143Z,16.97
2023-07-25T01:10:37.022Z,16.93
2023-07-25T01:13:22.020Z,16.99
2023-07-25T01:16:07.020Z,16.95
2023-07-25T01:18:51.878Z,16.80
2023-07-25T01:21:37.038Z,16.75
2023-07-25T01:24:21.965Z,16.73
2023-07-25T01:27:07.426Z,16.77
2023-07-25T01:29:52.405Z,16.76
2023-07-25T01:32:37.571Z,16.72
2023-07-25T01:35:22.542Z,16.77
2023-07-25T01:38:07.251Z,16.78
2023-07-25T01:40:52.264Z,16.75
2023-07-25T01:43:37.187Z,16.73
2023-07-25T01:46:22.304Z,16.78
2023-07-25T01:49:07.271Z,16.80
2023-07-25T01:51:52.342Z,16.75
2023-07-25T01:54:37.406Z,16.78
2023-07-25T01:57:22.385Z,16.77
2023-07-25T02:00:07.347Z,16.79
2023-07-25T02:02:53.996Z,16.74
2023-07-25T02:05:38.617Z,16.80
2023-07-25T02:08:23.509Z,16.78
2023-07-25T02:11:08.479Z,16.75
2023-07-25T02:13:53.353Z,16.74
2023-07-25T02:16:38.373Z,16.71
2023-07-25T02:19:23.383Z,16.62
2023-07-25T02:22:08.167Z,16.63
2023-07-25T02:24:53.314Z,16.49
2023-07-25T02:27:38.193Z,16.39
2023-07-25T02:30:23.184Z,16.31
2023-07-25T02:33:08.227Z,16.15
2023-07-25T02:35:53.215Z,16.07
2023-07-25T02:38:38.218Z,16.10
2023-07-25T02:41:23.217Z,16.06
2023-07-25T02:44:08.178Z,16.07
2023-07-25T02:46:53.233Z,16.02
2023-07-25T02:49:38.219Z,16.05
2023-07-25T02:52:23.406Z,16.04
2023-07-25T02:55:08.251Z,15.94
2023-07-25T02:57:53.124Z,16.08
2023-07-25T03:00:38.025Z,16.00
2023-07-25T03:03:23.093Z,15.91
2023-07-25T03:06:08.116Z,15.92
2023-07-25T03:08:53.096Z,15.95
2023-07-25T03:11:38.113Z,15.85
2023-07-25T03:14:23.248Z,15.87
2023-07-25T03:17:08.195Z,15.83
2023-07-25T03:19:53.225Z,15.82
2023-07-25T03:22:37.994Z,15.90
2023-07-25T03:25:23.049Z,15.86
2023-07-25T03:28:07.963Z,15.88
2023-07-25T03:30:52.982Z,15.85
2023-07-25T03:33:37.771Z,15.84
2023-07-25T03:36:22.826Z,15.89
2023-07-25T03:39:07.915Z,15.81
2023-07-25T03:41:52.933Z,15.81
2023-07-25T03:44:37.819Z,15.66
2023-07-25T03:47:22.826Z,15.70
2023-07-25T03:50:07.790Z,15.78
2023-07-25T03:52:52.818Z,15.70
2023-07-25T03:55:37.775Z,15.75
2023-07-25T03:58:22.728Z,15.65
2023-07-25T04:01:07.668Z,15.69
2023-07-25T04:03:52.764Z,15.73
2023-07-25T04:06:37.484Z,15.70
2023-07-25T04:09:22.451Z,15.68
2023-07-25T04:12:07.261Z,15.73
2023-07-25T04:14:52.297Z,15.62
2023-07-25T04:17:37.468Z,15.70
2023-07-25T04:20:22.380Z,15.75
2023-07-25T04:23:07.497Z,15.71
2023-07-25T04:25:52.367Z,15.75
2023-07-25T04:28:37.482Z,15.81
2023-07-25T04:31:22.376Z,15.82
2023-07-25T04:34:07.318Z,15.72
2023-07-25T04:36:52.364Z,15.69
2023-07-25T04:39:37.346Z,15.79
2023-07-25T04:42:22.461Z,15.75
2023-07-25T04:45:07.409Z,15.73
2023-07-25T04:47:52.393Z,15.69
2023-07-25T04:50:37.282Z,15.72
2023-07-25T04:53:22.088Z,15.76
2023-07-25T04:56:07.105Z,15.67
2023-07-25T04:58:52.023Z,15.70
2023-07-25T05:01:37.126Z,15.63
2023-07-25T05:04:21.956Z,15.70
2023-07-25T05:07:06.715Z,15.64
2023-07-25T05:09:51.684Z,15.67
2023-07-25T05:12:36.902Z,15.65
2023-07-25T05:15:21.749Z,15.68
2023-07-25T05:18:06.861Z,15.67
2023-07-25T05:20:51.390Z,15.66
2023-07-25T05:23:36.467Z,15.66
2023-07-25T05:26:21.520Z,15.70
2023-07-25T05:29:06.443Z,15.65
2023-07-25T05:31:51.621Z,15.70
2023-07-25T05:34:36.604Z,15.75
2023-07-25T05:37:21.653Z,15.74
2023-07-25T05:40:06.662Z,15.79
2023-07-25T05:42:51.549Z,15.83
2023-07-25T05:45:36.582Z,15.80
2023-07-25T05:48:21.654Z,15.79
2023-07-25T05:51:06.711Z,15.80
2023-07-25T05:53:51.573Z,15.81
2023-07-25T05:56:36.717Z,15.82
2023-07-25T05:59:21.557Z,15.91
2023-07-25T06:02:06.560Z,15.89
2023-07-25T06:04:51.507Z,15.99
2023-07-25T06:07:36.555Z,15.97
2023-07-25T06:10:21.671Z,15.94
2023-07-25T06:13:06.765Z,16.10
2023-07-25T06:15:51.846Z,16.15
2023-07-25T06:18:36.803Z,16.11
2023-07-25T06:21:21.818Z,16.26
2023-07-25T06:24:06.754Z,16.33
2023-07-25T06:26:51.703Z,16.36
2023-07-25T06:29:36.663Z,16.50
2023-07-25T06:32:21.774Z,16.66
2023-07-25T06:35:06.817Z,16.66
2023-07-25T06:37:51.817Z,16.86
2023-07-25T06:40:36.749Z,16.91
2023-07-25T06:43:21.722Z,17.11
2023-07-25T06:46:06.806Z,17.23
2023-07-25T06:48:51.671Z,17.24
2023-07-25T06:51:38.901Z,17.37
2023-07-25T06:54:23.909Z,17.49
2023-07-25T06:57:08.871Z,17.67
2023-07-25T06:59:53.883Z,17.68
2023-07-25T07:02:38.908Z,17.75
2023-07-25T07:05:30.425Z,17.64
2023-07-25T07:08:15.596Z,17.69
2023-07-25T07:11:00.508Z,17.63
2023-07-25T07:13:45.523Z,17.64
2023-07-25T07:16:30.623Z,17.68
2023-07-25T07:19:15.776Z,17.70
2023-07-25T07:22:00.889Z,17.70
2023-07-25T07:24:45.834Z,17.77
2023-07-25T07:27:30.823Z,17.90
2023-07-25T07:30:15.831Z,18.01
2023-07-25T07:33:00.819Z,17.90
2023-07-25T07:35:45.704Z,17.97
2023-07-25T07:38:30.810Z,18.10
2023-07-25T07:41:15.841Z,18.32
2023-07-25T07:44:00.808Z,18.11
2023-07-25T07:46:45.969Z,18.21
2023-07-25T07:49:30.784Z,18.24
2023-07-25T07:52:22.982Z,18.34
2023-07-25T07:55:14.471Z,18.25
2023-07-25T07:57:59.483Z,18.32
2023-07-25T08:00:44.446Z,18.23
2023-07-25T08:03:29.509Z,18.14
2023-07-25T08:06:14.465Z,18.00
2023-07-25T08:08:59.527Z,17.95
2023-07-25T08:11:44.616Z,17.93
2023-07-25T08:14:29.505Z,17.92
2023-07-25T08:17:14.656Z,17.82
2023-07-25T08:19:59.524Z,17.69
2023-07-25T08:22:44.516Z,17.69
2023-07-25T08:25:29.521Z,17.70
2023-07-25T08:28:14.529Z,17.76
2023-07-25T08:30:59.487Z,17.85
2023-07-25T08:33:44.389Z,17.94
2023-07-25T08:39:14.506Z,17.84
2023-07-25T08:41:59.471Z,18.13
2023-07-25T08:44:44.445Z,18.01
2023-07-25T08:47:29.463Z,18.13
2023-07-25T08:50:14.239Z,18.40
2023-07-25T08:52:59.099Z,18.38
2023-07-25T08:55:44.087Z,18.74
2023-07-25T08:58:29.017Z,18.76
2023-07-25T09:01:14.050Z,18.72
2023-07-25T09:03:59.022Z,18.91
2023-07-25T09:06:43.846Z,18.92
2023-07-25T09:09:28.725Z,19.03
2023-07-25T09:12:13.747Z,19.30
2023-07-25T09:14:58.811Z,19.60
2023-07-25T09:17:43.841Z,19.63
2023-07-25T09:20:31.833Z,19.62
2023-07-25T09:23:16.698Z,19.85
2023-07-25T09:26:01.746Z,19.98
2023-07-25T09:28:46.758Z,20.11
2023-07-25T09:31:32.008Z,20.21
2023-07-25T09:34:17.388Z,20.44
2023-07-25T09:37:02.382Z,20.34
2023-07-25T09:39:48.072Z,20.24
2023-07-25T09:42:34.416Z,20.42
2023-07-25T09:45:19.401Z,20.59
2023-07-25T09:48:04.482Z,20.76
2023-07-25T09:50:49.261Z,21.00
2023-07-25T09:53:34.280Z,20.85
2023-07-25T09:56:19.301Z,20.96
2023-07-25T09:59:07.261Z,21.04
2023-07-25T10:01:52.797Z,21.07
2023-07-25T10:04:38.094Z,20.60
2023-07-25T10:07:23.120Z,20.70
2023-07-25T10:10:08.081Z,20.61
2023-07-25T10:12:53.152Z,20.34
2023-07-25T10:15:38.224Z,20.37
2023-07-25T10:18:23.276Z,20.50
2023-07-25T10:21:08.297Z,20.41
2023-07-25T10:23:53.355Z,20.28
2023-07-25T10:26:38.393Z,20.17
2023-07-25T10:29:23.601Z,20.37
2023-07-25T10:32:11.339Z,20.46
2023-07-25T10:34:57.742Z,20.38
2023-07-25T10:37:42.700Z,20.67
2023-07-25T10:40:27.911Z,20.85
2023-07-25T10:43:12.587Z,21.01
2023-07-25T10:45:57.588Z,21.10
2023-07-25T10:48:42.548Z,21.18
2023-07-25T10:51:27.464Z,21.18
2023-07-25T10:54:12.398Z,21.21
2023-07-25T10:56:57.408Z,20.97
2023-07-25T10:59:42.483Z,21.18
2023-07-25T11:02:27.587Z,21.16
2023-07-25T11:05:12.430Z,21.15
2023-07-25T11:07:57.290Z,21.17
2023-07-25T11:10:42.168Z,21.43
2023-07-25T11:13:27.103Z,21.17
2023-07-25T11:16:12.114Z,21.44
2023-07-25T11:18:57.244Z,21.59
2023-07-25T11:21:42.134Z,21.62
2023-07-25T11:24:27.237Z,21.72
2023-07-25T11:27:12.019Z,21.81
2023-07-25T11:29:56.927Z,21.82
2023-07-25T11:32:41.841Z,22.10
2023-07-25T11:35:26.816Z,22.27
2023-07-25T11:38:11.743Z,22.45
2023-07-25T11:40:56.799Z,22.49
2023-07-25T11:43:43.520Z,22.45
2023-07-25T11:46:32.403Z,22.31
2023-07-25T11:49:28.219Z,22.33
2023-07-25T11:52:21.375Z,22.36
2023-07-25T11:55:06.384Z,22.09
2023-07-25T11:57:51.353Z,22.10
2023-07-25T12:00:36.377Z,22.23
2023-07-25T12:03:21.336Z,22.01
2023-07-25T12:06:06.392Z,21.88
2023-07-25T12:08:51.066Z,21.98
2023-07-25T12:11:36.074Z,22.07
2023-07-25T12:14:21.004Z,21.88
2023-07-25T12:17:05.983Z,21.87
2023-07-25T12:19:51.442Z,21.76
2023-07-25T12:22:36.510Z,21.73
2023-07-25T12:25:21.539Z,21.35
2023-07-25T12:28:06.399Z,21.44
2023-07-25T12:30:51.601Z,21.15
2023-07-25T12:33:36.496Z,21.18
2023-07-25T12:36:21.434Z,20.83
2023-07-25T12:39:06.535Z,20.93
2023-07-25T12:41:51.401Z,20.87
2023-07-25T12:44:36.343Z,20.79
2023-07-25T12:47:21.339Z,20.82
2023-07-25T12:50:06.435Z,20.84
2023-07-25T12:52:51.269Z,20.79
2023-07-25T12:55:37.309Z,20.87
2023-07-25T12:58:23.702Z,20.61
2023-07-25T13:01:08.556Z,20.49
2023-07-25T13:03:53.637Z,20.68
2023-07-25T13:06:38.420Z,20.65
2023-07-25T13:09:23.408Z,20.61
2023-07-25T13:12:08.437Z,20.35
2023-07-25T13:14:53.424Z,20.39
2023-07-25T13:17:38.218Z,20.56
2023-07-25T13:20:23.112Z,20.74
2023-07-25T13:23:08.024Z,20.75
2023-07-25T13:25:52.995Z,20.79
2023-07-25T13:28:38.036Z,20.91
2023-07-25T13:31:23.012Z,20.96
2023-07-25T13:34:08.028Z,21.24
2023-07-25T13:36:53.018Z,20.90
2023-07-25T13:39:37.970Z,20.99
2023-07-25T13:42:22.965Z,20.81
2023-07-25T13:45:07.943Z,20.85
2023-07-25T13:47:53.061Z,20.65
2023-07-25T13:50:50.539Z,20.80
2023-07-25T13:53:36.903Z,20.77
2023-07-25T13:56:21.846Z,20.50
2023-07-25T13:59:06.912Z,20.44
2023-07-25T14:01:51.946Z,20.33
2023-07-25T14:04:36.924Z,20.28
2023-07-25T14:07:21.690Z,20.28
2023-07-25T14:10:06.725Z,19.96
2023-07-25T14:12:51.870Z,19.56
2023-07-25T14:15:36.835Z,19.68
2023-07-25T14:18:21.957Z,19.82
2023-07-25T14:21:06.970Z,19.85
2023-07-25T14:23:52.222Z,19.96
2023-07-25T14:26:37.655Z,19.99
2023-07-25T14:29:22.804Z,19.73
2023-07-25T14:32:07.721Z,19.99
2023-07-25T14:34:52.595Z,19.86
2023-07-25T14:37:53.548Z,20.23
2023-07-25T14:40:40.573Z,20.04
2023-07-25T14:43:27.238Z,20.28
2023-07-25T14:46:12.162Z,20.28
2023-07-25T14:48:57.092Z,20.33
2023-07-25T14:51:42.193Z,20.27
2023-07-25T14:54:27.086Z,20.20
2023-07-25T14:57:11.981Z,19.94
2023-07-25T14:59:57.078Z,19.92
2023-07-25T15:02:42.012Z,19.96
2023-07-25T15:05:26.959Z,19.79
2023-07-25T15:08:11.789Z,19.77
2023-07-25T15:10:56.909Z,19.74
2023-07-25T15:13:41.620Z,19.62
2023-07-25T15:16:27.615Z,19.65
2023-07-25T15:19:12.547Z,19.46
2023-07-25T15:21:57.604Z,19.32
2023-07-25T15:24:42.583Z,19.19
2023-07-25T15:27:27.558Z,19.10
2023-07-25T15:30:12.669Z,19.07
2023-07-25T15:32:57.709Z,18.98
2023-07-25T15:35:42.685Z,18.92
2023-07-25T15:38:27.629Z,18.91
2023-07-25T15:41:12.749Z,18.64
2023-07-25T15:43:57.823Z,18.54
2023-07-25T15:46:42.919Z,18.39
2023-07-25T15:49:27.834Z,18.36
2023-07-25T15:52:13.014Z,18.26
2023-07-25T15:54:57.965Z,18.41
2023-07-25T15:57:42.924Z,18.11
2023-07-25T16:00:28.011Z,18.13
2023-07-25T16:03:12.879Z,18.12
2023-07-25T16:05:57.838Z,18.16
2023-07-25T16:08:42.730Z,18.12
2023-07-25T16:11:27.817Z,18.03
2023-07-25T16:14:12.938Z,17.78
2023-07-25T16:16:57.886Z,17.86
2023-07-25T16:19:42.979Z,17.71
2023-07-25T16:22:27.632Z,17.85
2023-07-25T16:25:12.807Z,17.76
2023-07-25T16:27:57.773Z,17.70
2023-07-25T16:30:42.865Z,17.66
2023-07-25T16:33:27.712Z,17.71
2023-07-25T16:36:12.808Z,17.47
2023-07-25T16:38:57.732Z,17.45
2023-07-25T16:41:42.819Z,17.34
2023-07-25T16:44:27.951Z,17.22
2023-07-25T16:47:12.850Z,17.28
2023-07-25T16:49:57.843Z,17.28
2023-07-25T16:52:42.874Z,17.43
2023-07-25T16:55:27.950Z,17.29
2023-07-25T16:58:13.029Z,17.39
2023-07-25T17:00:57.982Z,17.44
2023-07-25T17:03:43.114Z,17.32
2023-07-25T17:06:27.962Z,17.48
2023-07-25T17:09:12.994Z,17.46
2023-07-25T17:11:58.004Z,17.40
2023-07-25T17:14:42.944Z,17.35
2023-07-25T17:17:27.943Z,17.33
2023-07-25T17:20:12.989Z,17.36
2023-07-25T17:22:57.900Z,17.38
2023-07-25T17:25:42.978Z,17.34
2023-07-25T17:28:28.105Z,17.36
2023-07-25T17:31:12.956Z,17.35
2023-07-25T17:33:57.965Z,17.27
2023-07-25T17:36:43.005Z,17.35
2023-07-25T17:39:28.094Z,17.32
2023-07-25T17:42:12.878Z,17.30
2023-07-25T17:44:57.797Z,17.18
2023-07-25T17:47:42.769Z,17.18
2023-07-25T17:50:27.632Z,16.98
2023-07-25T17:53:13.530Z,16.88
2023-07-25T17:55:58.465Z,16.90
2023-07-25T17:58:43.501Z,16.73
2023-07-25T18:01:28.419Z,16.63
2023-07-25T18:04:13.331Z,16.71
2023-07-25T18:06:58.367Z,16.55
2023-07-25T18:09:43.284Z,16.59
2023-07-25T18:12:28.252Z,16.42
2023-07-25T18:15:13.165Z,16.26
2023-07-25T18:17:58.374Z,16.28
2023-07-25T18:20:43.194Z,16.31
2023-07-25T18:23:28.274Z,16.29
2023-07-25T18:26:13.224Z,16.22
2023-07-25T18:28:58.178Z,16.25
2023-07-25T18:31:43.256Z,16.27
2023-07-25T18:34:28.217Z,16.14
2023-07-25T18:37:13.248Z,16.21
2023-07-25T18:39:58.156Z,16.13
2023-07-25T18:42:43.159Z,15.99
2023-07-25T18:45:28.076Z,15.94
2023-07-25T18:48:13.291Z,15.99
2023-07-25T18:50:58.255Z,15.93
2023-07-25T18:53:43.247Z,15.80
2023-07-25T18:56:28.156Z,15.83
2023-07-25T18:59:13.098Z,15.71
2023-07-25T19:01:58.191Z,15.78
2023-07-25T19:04:43.983Z,15.63
2023-07-25T19:07:28.986Z,15.44
2023-07-25T19:10:14.261Z,15.42
2023-07-25T19:12:59.801Z,15.50
2023-07-25T19:15:44.859Z,15.31
2023-07-25T19:18:29.708Z,15.13
2023-07-25T19:21:14.870Z,15.00
2023-07-25T19:23:59.827Z,14.99
2023-07-25T19:26:44.834Z,15.00
2023-07-25T19:29:29.454Z,14.85
2023-07-25T19:32:14.419Z,14.73
2023-07-25T19:34:59.662Z,14.70
2023-07-25T19:37:44.369Z,14.77
2023-07-25T19:40:29.477Z,14.72
2023-07-25T19:43:14.408Z,14.70
2023-07-25T19:45:59.751Z,14.60
2023-07-25T19:48:44.659Z,14.68
2023-07-25T19:51:29.766Z,14.71
2023-07-25T19:54:14.809Z,14.83
2023-07-25T19:56:59.738Z,14.83
2023-07-25T19:59:44.764Z,14.87
2023-07-25T20:02:29.885Z,14.90
2023-07-25T20:05:14.870Z,14.77
2023-07-25T20:07:59.847Z,14.87
2023-07-25T20:10:44.801Z,14.70
2023-07-25T20:13:29.693Z,14.72
2023-07-25T20:16:14.831Z,14.74
2023-07-25T20:18:59.842Z,14.53
2023-07-25T20:21:44.909Z,14.51
2023-07-25T20:24:29.983Z,14.54
2023-07-25T20:27:14.916Z,14.49
2023-07-25T20:30:00.045Z,14.44
2023-07-25T20:32:45.147Z,14.34
2023-07-25T20:35:30.080Z,14.09
2023-07-25T20:38:15.036Z,14.25
2023-07-25T20:40:59.978Z,14.18
2023-07-25T20:43:45.093Z,14.07
2023-07-25T20:46:30.475Z,13.99
2023-07-25T20:49:15.766Z,14.03
2023-07-25T20:52:00.758Z,13.96
2023-07-25T20:54:45.760Z,13.89
2023-07-25T20:57:30.784Z,13.93
2023-07-25T21:00:15.827Z,13.89
2023-07-25T21:03:01.036Z,13.90
2023-07-25T21:05:45.887Z,13.89
2023-07-25T21:08:30.870Z,13.85
2023-07-25T21:11:15.786Z,13.84
2023-07-25T21:14:00.823Z,13.81
2023-07-25T21:16:45.821Z,13.69
2023-07-25T21:19:30.747Z,13.54
2023-07-25T21:22:15.729Z,13.60
2023-07-25T21:25:00.787Z,13.55
2023-07-25T21:27:45.740Z,13.62
2023-07-25T21:30:30.737Z,13.57
2023-07-25T21:33:15.905Z,13.46
2023-07-25T21:36:00.941Z,13.57
2023-07-25T21:38:45.910Z,13.45
2023-07-25T21:41:30.807Z,13.48
2023-07-25T21:44:15.848Z,13.48
2023-07-25T21:47:00.778Z,13.57
2023-07-25T21:49:45.807Z,13.49
2023-07-25T21:52:30.687Z,13.53
2023-07-25T21:55:15.668Z,13.50
2023-07-25T21:58:00.731Z,13.48
2023-07-25T22:00:45.832Z,13.44
2023-07-25T22:03:31.402Z,13.55
2023-07-25T22:06:17.963Z,13.54
2023-07-25T22:09:02.878Z,13.56
2023-07-25T22:11:47.913Z,13.46
2023-07-25T22:14:32.840Z,13.60
2023-07-25T22:17:17.848Z,13.53
2023-07-25T22:20:02.838Z,13.49
2023-07-25T22:22:47.797Z,13.48
2023-07-25T22:25:32.702Z,13.54
2023-07-25T22:28:17.715Z,13.41
2023-07-25T22:31:02.853Z,13.40
2023-07-25T22:33:47.792Z,13.47
2023-07-25T22:36:33.030Z,13.43
2023-07-25T22:39:18.318Z,13.28
2023-07-25T22:42:03.445Z,13.21
2023-07-25T22:44:48.268Z,13.31
2023-07-25T22:47:33.231Z,13.19
2023-07-25T22:50:18.261Z,13.19
2023-07-25T22:53:03.115Z,13.19
2023-07-25T22:55:48.322Z,13.18
2023-07-25T22:58:33.364Z,13.16
2023-07-25T23:01:18.502Z,13.12
2023-07-25T23:04:03.357Z,13.14
2023-07-25T23:06:48.374Z,13.12
2023-07-25T23:09:33.342Z,13.10
2023-07-25T23:19:10.586Z,13.15
2023-07-25T23:21:55.528Z,13.16
2023-07-25T23:24:40.716Z,13.23
2023-07-25T23:27:25.656Z,13.25
2023-07-25T23:30:10.599Z,13.31
2023-07-25T23:32:55.566Z,13.24
2023-07-25T23:35:40.494Z,13.12
2023-07-25T23:38:25.372Z,13.22
2023-07-25T23:41:10.286Z,13.23
2023-07-25T23:43:55.311Z,13.22
2023-07-25T23:46:40.464Z,13.27
2023-07-25T23:49:25.425Z,13.22
2023-07-25T23:52:10.522Z,13.24
2023-07-25T23:54:55.644Z,13.32
2023-07-25T23:57:40.517Z,13.29
